Time;durP1;ratioP1;P1;durP2;ratioP2;P2;SDS_P1;SDS_P2;PMS_P1;PMS_P2;Temp;Humidity;BMP_temperature;BMP_pressure;BME280_temperature;BME280_humidity;BME280_pressure;Samples;Min_cycle;Max_cycle;Signal;HPM_P1;HPM_P2
2023/07/22 00:00:49;;;;;;;7.65;4.50;;;;;;;21.46;68.56;96408.50;5137449;27;20620;-74
2023/07/22 00:03:16;;;;;;;9.32;4.82;;;;;;;21.39;68.82;96402.84;5121411;27;20094;-67
2023/07/22 00:05:43;;;;;;;4.97;4.40;;;;;;;21.39;69.22;96408.19;5135671;27;20411;-71
2023/07/22 00:08:12;;;;;;;6.40;4.97;;;;;;;21.40;69.31;96417.00;5137218;27;20051;-68
2023/07/22 00:10:42;;;;;;;7.22;5.05;;;;;;;21.30;69.43;96407.13;5137067;27;20381;-70
2023/07/22 00:13:09;;;;;;;7.82;4.55;;;;;;;21.28;69.46;96405.59;5136556;27;20190;-68
2023/07/22 00:15:36;;;;;;;6.10;4.20;;;;;;;21.25;69.44;96419.13;5136980;27;20481;-66
2023/07/22 00:18:04;;;;;;;6.40;4.30;;;;;;;21.17;70.19;96412.66;5136870;27;20047;-71
2023/07/22 00:20:31;;;;;;;8.05;4.13;;;;;;;21.16;69.46;96408.28;5136075;27;20107;-73
2023/07/22 00:22:59;;;;;;;9.88;4.57;;;;;;;21.16;69.92;96404.81;5136925;27;20102;-69
2023/07/22 00:25:27;;;;;;;7.00;5.35;;;;;;;21.11;70.35;96405.19;5127039;27;20040;-70
2023/07/22 00:27:54;;;;;;;6.60;4.45;;;;;;;21.09;70.53;96407.13;5136691;27;20150;-69
2023/07/22 00:30:21;;;;;;;7.60;4.63;;;;;;;21.10;70.27;96407.97;5136161;27;20504;-64
2023/07/22 00:32:48;;;;;;;6.30;4.88;;;;;;;21.08;70.66;96400.94;5136663;27;20071;-65
2023/07/22 00:35:16;;;;;;;7.93;4.68;;;;;;;21.09;70.25;96396.47;5136564;27;20115;-68
2023/07/22 00:37:43;;;;;;;4.65;4.13;;;;;;;21.07;70.27;96396.59;5121286;27;20087;-64
2023/07/22 00:40:12;;;;;;;5.97;4.45;;;;;;;21.04;70.60;96394.19;5115791;28;20048;-70
2023/07/22 00:42:41;;;;;;;5.20;4.57;;;;;;;20.95;70.33;96394.97;5115726;28;20503;-66
2023/07/22 00:45:09;;;;;;;8.70;5.57;;;;;;;20.94;70.39;96396.78;5115803;28;20101;-68
2023/07/22 00:47:37;;;;;;;6.22;5.25;;;;;;;20.92;70.51;96395.25;5115829;28;20177;-67
2023/07/22 00:50:06;;;;;;;16.95;4.50;;;;;;;20.89;70.73;96396.28;5116871;27;20043;-67
2023/07/22 00:52:33;;;;;;;9.23;4.72;;;;;;;20.85;71.15;96386.88;5115729;28;20044;-64
2023/07/22 00:55:00;;;;;;;8.25;5.25;;;;;;;20.88;71.29;96388.44;5115749;28;20051;-69
2023/07/22 00:57:27;;;;;;;7.68;4.63;;;;;;;20.94;71.14;96387.97;5116571;27;20086;-69
2023/07/22 00:59:56;;;;;;;8.73;4.95;;;;;;;20.86;70.90;96385.06;5115318;28;20051;-72
2023/07/22 01:02:24;;;;;;;7.03;5.22;;;;;;;20.83;71.22;96381.69;5125481;27;20047;-67
2023/07/22 01:04:51;;;;;;;9.15;4.78;;;;;;;20.75;71.09;96377.97;5136098;27;20054;-66
2023/07/22 01:07:19;;;;;;;9.90;4.93;;;;;;;20.76;71.15;96379.66;5135956;27;20047;-68
2023/07/22 01:09:46;;;;;;;5.43;4.50;;;;;;;20.72;71.08;96384.41;5135905;27;20039;-68
2023/07/22 01:12:13;;;;;;;7.30;4.72;;;;;;;20.68;71.39;96390.94;5135959;27;20081;-63
2023/07/22 01:14:42;;;;;;;7.45;4.82;;;;;;;20.66;72.01;96395.53;5124178;27;20058;-68
2023/07/22 01:17:13;;;;;;;8.23;4.85;;;;;;;20.58;72.73;96386.38;5115284;28;20131;-66
2023/07/22 01:19:40;;;;;;;6.57;4.95;;;;;;;20.46;72.84;96392.66;5115288;28;20481;-64
2023/07/22 01:22:08;;;;;;;7.60;4.70;;;;;;;20.47;73.04;96397.03;5118145;27;20096;-66
2023/07/22 01:24:37;;;;;;;7.07;5.18;;;;;;;20.47;72.98;96394.38;5135780;27;20054;-67
2023/07/22 01:27:08;;;;;;;9.13;4.75;;;;;;;20.49;73.37;96395.06;5135637;27;20086;-66
2023/07/22 01:29:35;;;;;;;7.63;4.95;;;;;;;20.52;73.05;96401.94;5123899;27;20048;-66
2023/07/22 01:32:02;;;;;;;10.57;4.72;;;;;;;20.52;72.74;96402.78;5116701;28;20067;-72
2023/07/22 01:34:31;;;;;;;7.90;5.57;;;;;;;20.57;72.93;96405.09;5120191;27;20070;-64
2023/07/22 01:36:59;;;;;;;7.85;5.20;;;;;;;20.53;72.72;96412.44;5114780;28;20564;-66
2023/07/22 01:39:28;;;;;;;9.38;5.18;;;;;;;20.56;73.01;96417.50;5114607;28;20044;-64
2023/07/22 01:41:56;;;;;;;7.22;5.00;;;;;;;20.60;72.56;96419.94;5114654;28;20047;-67
2023/07/22 01:44:24;;;;;;;10.05;4.88;;;;;;;20.65;72.43;96423.91;5115505;27;20048;-67
2023/07/22 01:46:51;;;;;;;7.93;5.13;;;;;;;20.69;72.24;96437.78;5114637;28;20055;-65
2023/07/22 01:49:18;;;;;;;8.55;4.80;;;;;;;20.73;72.34;96439.22;5114451;28;20086;-63
2023/07/22 01:51:45;;;;;;;5.50;4.85;;;;;;;20.73;71.84;96428.59;5114490;28;20048;-65
2023/07/22 01:54:12;;;;;;;6.68;4.53;;;;;;;20.62;72.46;96410.84;5114684;28;20447;-69
2023/07/22 01:56:40;;;;;;;8.55;5.03;;;;;;;20.51;72.46;96393.16;5114431;28;20043;-70
2023/07/22 01:59:09;;;;;;;5.85;4.53;;;;;;;20.45;72.90;96388.31;5129047;27;20517;-66
2023/07/22 02:01:36;;;;;;;6.47;5.32;;;;;;;20.43;73.68;96388.44;5115315;27;20044;-70
2023/07/22 02:04:03;;;;;;;7.97;4.60;;;;;;;20.58;73.44;96388.16;5114110;28;20075;-67
2023/07/22 02:06:31;;;;;;;8.23;4.93;;;;;;;20.60;72.47;96382.72;5114243;28;20435;-64
2023/07/22 02:08:58;;;;;;;8.20;4.95;;;;;;;20.53;72.79;96380.56;5114191;28;20052;-68
2023/07/22 02:11:25;;;;;;;7.50;5.18;;;;;;;20.48;72.71;96397.84;5128616;27;20051;-68
2023/07/22 02:13:52;;;;;;;8.82;4.80;;;;;;;20.48;72.79;96398.72;5134787;27;20488;-65
2023/07/22 02:16:21;;;;;;;7.78;5.30;;;;;;;20.41;73.74;96393.03;5134617;27;20089;-73
2023/07/22 02:18:48;;;;;;;6.70;5.18;;;;;;;20.26;75.04;96397.75;5134531;27;20125;-69
2023/07/22 02:21:15;;;;;;;8.43;4.95;;;;;;;20.16;75.21;96397.66;5134637;27;20047;-66
2023/07/22 02:23:42;;;;;;;5.00;4.30;;;;;;;20.18;74.99;96410.81;5132808;27;20139;-65
2023/07/22 02:26:09;;;;;;;7.47;5.38;;;;;;;20.20;75.15;96404.41;5134517;27;20053;-71
2023/07/22 02:28:37;;;;;;;7.28;5.25;;;;;;;20.26;75.07;96404.91;5134354;27;20051;-70
2023/07/22 02:31:06;;;;;;;11.40;5.20;;;;;;;20.32;74.23;96407.06;5133961;27;20567;-69
2023/07/22 02:33:35;;;;;;;9.93;5.47;;;;;;;20.35;74.02;96412.16;5134349;27;20055;-67
2023/07/22 02:36:02;;;;;;;6.45;4.50;;;;;;;20.28;74.02;96416.22;5132212;27;20091;-71
2023/07/22 02:38:29;;;;;;;7.45;4.93;;;;;;;20.23;74.46;96415.78;5134303;27;20051;-67
2023/07/22 02:40:56;;;;;;;8.63;5.03;;;;;;;20.27;74.55;96415.41;5134051;27;20047;-68
2023/07/22 02:43:23;;;;;;;9.35;5.07;;;;;;;20.30;74.08;96401.03;5133718;27;20126;-69
2023/07/22 02:45:50;;;;;;;10.15;4.97;;;;;;;20.32;73.84;96412.38;5093319;28;20040;-68
2023/07/22 02:48:18;;;;;;;7.55;4.80;;;;;;;20.31;74.26;96413.31;5112299;27;20047;-68
2023/07/22 02:50:46;;;;;;;7.20;5.30;;;;;;;20.32;74.24;96421.19;5134128;27;20051;-70
2023/07/22 02:53:13;;;;;;;6.18;4.75;;;;;;;20.33;73.92;96422.03;5130038;27;20047;-71
2023/07/22 02:55:41;;;;;;;5.47;4.78;;;;;;;20.37;73.32;96422.63;5113586;28;20048;-69
2023/07/22 02:58:07;;;;;;;6.18;4.88;;;;;;;20.36;73.75;96411.16;5113433;28;20048;-66
2023/07/22 03:00:34;;;;;;;11.30;4.85;;;;;;;20.31;73.55;96397.41;5105616;28;20047;-67
2023/07/22 03:03:01;;;;;;;10.05;5.40;;;;;;;20.31;73.46;96392.94;5092833;28;20051;-64
2023/07/22 03:05:31;;;;;;;10.57;4.75;;;;;;;20.35;72.90;96388.25;5093081;28;20071;-69
2023/07/22 03:08:00;;;;;;;11.55;5.05;;;;;;;20.35;72.88;96396.22;5093093;28;20062;-67
2023/07/22 03:10:29;;;;;;;6.38;5.00;;;;;;;20.35;73.20;96392.69;5092998;28;20564;-65
2023/07/22 03:12:56;;;;;;;8.18;5.32;;;;;;;20.33;73.08;96396.34;5101606;28;20446;-67
2023/07/22 03:15:25;;;;;;;7.35;4.80;;;;;;;20.28;73.24;96387.88;5113404;28;20109;-67
2023/07/22 03:17:52;;;;;;;9.38;5.55;;;;;;;20.23;73.68;96384.75;5113564;28;20044;-66
2023/07/22 03:20:20;;;;;;;6.40;4.70;;;;;;;20.24;73.62;96391.75;5113175;28;20047;-66
2023/07/22 03:22:47;;;;;;;9.13;5.22;;;;;;;20.26;73.40;96384.47;5112700;28;20058;-68
2023/07/22 03:25:17;;;;;;;7.18;4.63;;;;;;;20.30;73.34;96382.44;5092999;28;20071;-69
2023/07/22 03:27:45;;;;;;;8.07;5.30;;;;;;;20.30;73.35;96388.59;5092900;28;20058;-70
2023/07/22 03:30:15;;;;;;;6.13;4.90;;;;;;;20.36;73.63;96387.25;5092910;28;20133;-68
2023/07/22 03:32:43;;;;;;;7.45;4.88;;;;;;;20.37;73.35;96385.44;5105435;28;20047;-69
2023/07/22 03:35:11;;;;;;;7.60;4.68;;;;;;;20.44;73.13;96382.16;5112800;28;20417;-65
2023/07/22 03:37:38;;;;;;;7.47;4.97;;;;;;;20.48;72.52;96382.78;5113418;28;20131;-68
2023/07/22 03:40:11;;;;;;;7.47;4.75;;;;;;;20.50;72.99;96401.25;5113071;28;20451;-67
2023/07/22 03:42:40;;;;;;;6.25;4.78;;;;;;;20.62;72.57;96412.69;5102547;28;20474;-67
2023/07/22 03:45:09;;;;;;;7.72;4.80;;;;;;;20.64;72.45;96414.25;5092595;28;20398;-66
2023/07/22 03:47:36;;;;;;;5.88;4.65;;;;;;;20.69;72.42;96404.09;5092576;28;20102;-68
2023/07/22 03:50:04;;;;;;;5.72;5.10;;;;;;;20.73;72.42;96407.34;5092731;28;20127;-68
2023/07/22 03:52:31;;;;;;;10.10;4.57;;;;;;;20.69;73.26;96393.47;5092790;28;20075;-67
2023/07/22 03:54:58;;;;;;;10.25;5.32;;;;;;;20.83;73.25;96396.81;5099942;28;20070;-65
2023/07/22 03:57:27;;;;;;;6.03;4.47;;;;;;;21.05;72.91;96401.22;5095867;28;20549;-64
2023/07/22 03:59:56;;;;;;;10.70;4.22;;;;;;;21.41;71.82;96408.91;5096256;28;20063;-65
2023/07/22 04:02:24;;;;;;;4.57;3.90;;;;;;;21.75;70.00;96406.97;5096050;28;20044;-65
2023/07/22 04:04:52;;;;;;;6.32;4.32;;;;;;;22.02;68.80;96410.94;5096213;28;20105;-65
2023/07/22 04:07:19;;;;;;;7.80;4.57;;;;;;;22.38;67.85;96421.16;5095299;28;20504;-65
2023/07/22 04:09:46;;;;;;;6.07;4.40;;;;;;;22.69;66.63;96419.31;5096050;28;20058;-66
2023/07/22 04:12:13;;;;;;;5.53;4.45;;;;;;;23.00;65.29;96415.69;5096075;28;20059;-68
2023/07/22 04:14:41;;;;;;;8.32;4.55;;;;;;;23.29;64.41;96416.66;5096137;28;20080;-66
2023/07/22 04:17:10;;;;;;;5.72;4.40;;;;;;;23.60;63.62;96416.53;5096026;28;20044;-64
2023/07/22 04:19:37;;;;;;;6.15;3.97;;;;;;;23.97;62.67;96413.06;5107970;28;20457;-66
2023/07/22 04:22:04;;;;;;;7.82;4.43;;;;;;;24.35;61.07;96409.56;5116208;28;20477;-68
2023/07/22 04:24:32;;;;;;;6.97;4.22;;;;;;;24.68;60.30;96420.59;5116342;28;20066;-68
2023/07/22 04:26:59;;;;;;;7.20;3.92;;;;;;;25.04;59.28;96411.81;5116143;28;20129;-65
2023/07/22 04:29:26;;;;;;;10.38;4.07;;;;;;;25.37;58.07;96413.91;5116170;28;20101;-64
2023/07/22 04:31:58;;;;;;;4.90;4.10;;;;;;;25.71;57.11;96418.56;5104643;28;20051;-66
2023/07/22 04:34:29;;;;;;;6.70;4.07;;;;;;;25.94;56.71;96420.72;5095760;28;20131;-63
2023/07/22 04:36:57;;;;;;;6.25;3.70;;;;;;;26.21;55.85;96426.88;5095572;28;20109;-65
2023/07/22 04:39:24;;;;;;;4.93;3.58;;;;;;;26.43;55.07;96434.56;5095484;28;20046;-66
2023/07/22 04:41:51;;;;;;;6.22;4.20;;;;;;;26.65;54.25;96435.81;5095513;28;20052;-64
2023/07/22 04:44:20;;;;;;;7.47;4.20;;;;;;;26.90;53.17;96441.22;5095039;28;20161;-63
2023/07/22 04:46:47;;;;;;;5.63;4.18;;;;;;;27.17;52.25;96436.59;5095472;28;20131;-69
2023/07/22 04:49:17;;;;;;;5.38;4.45;;;;;;;27.30;52.40;96432.59;5095257;28;20040;-69
2023/07/22 04:51:46;;;;;;;6.57;4.88;;;;;;;27.54;50.47;96433.63;5095335;28;20040;-63
2023/07/22 04:54:14;;;;;;;11.77;5.05;;;;;;;27.83;50.08;96430.41;5095408;28;20048;-67
2023/07/22 04:56:42;;;;;;;7.57;4.68;;;;;;;28.10;49.74;96425.66;5095011;28;20052;-65
2023/07/22 04:59:09;;;;;;;8.35;4.05;;;;;;;28.38;49.04;96424.41;5095257;28;20052;-66
2023/07/22 05:01:37;;;;;;;5.65;4.25;;;;;;;28.51;48.71;96422.00;5095177;28;20105;-68
2023/07/22 05:04:04;;;;;;;5.75;4.07;;;;;;;28.74;48.79;96417.69;5094920;28;20048;-64
2023/07/22 05:06:31;;;;;;;10.07;4.50;;;;;;;29.05;48.06;96426.78;5095027;28;20056;-64
2023/07/22 05:09:01;;;;;;;6.90;3.95;;;;;;;29.35;48.31;96425.03;5094947;28;20067;-68
2023/07/22 05:11:28;;;;;;;4.97;3.83;;;;;;;29.61;46.80;96420.31;5095023;28;20136;-65
2023/07/22 05:13:55;;;;;;;7.18;4.07;;;;;;;29.79;45.76;96424.53;5094981;28;20157;-69
2023/07/22 05:16:23;;;;;;;6.85;3.95;;;;;;;29.72;45.40;96427.97;5095097;28;20055;-68
2023/07/22 05:18:50;;;;;;;8.75;4.20;;;;;;;29.76;45.88;96431.97;5094877;28;20044;-69
2023/07/22 05:21:18;;;;;;;8.60;4.55;;;;;;;29.98;45.93;96433.94;5094220;28;20090;-64
2023/07/22 05:23:45;;;;;;;7.20;4.15;;;;;;;30.19;45.78;96432.41;5094807;28;20052;-66
2023/07/22 05:26:13;;;;;;;8.15;3.78;;;;;;;30.22;44.15;96422.06;5094769;28;20456;-65
2023/07/22 05:28:41;;;;;;;9.52;4.22;;;;;;;30.27;44.54;96416.97;5094207;28;20040;-67
2023/07/22 05:31:08;;;;;;;6.57;4.65;;;;;;;30.46;43.73;96420.09;5079411;28;20132;-64
2023/07/22 05:33:35;;;;;;;8.35;4.35;;;;;;;30.71;42.96;96417.09;5094488;28;20044;-67
2023/07/22 05:36:02;;;;;;;7.28;4.65;;;;;;;30.92;42.94;96420.88;5094594;28;20135;-69
2023/07/22 05:38:31;;;;;;;8.90;4.50;;;;;;;31.28;42.37;96428.09;5094340;28;20130;-72
2023/07/22 05:40:58;;;;;;;10.30;4.10;;;;;;;31.56;42.59;96431.06;5109118;28;20150;-67
2023/07/22 05:43:27;;;;;;;7.78;4.65;;;;;;;31.93;42.86;96433.69;5102901;28;20055;-70
2023/07/22 05:45:55;;;;;;;7.35;4.13;;;;;;;32.28;42.90;96423.72;5095337;28;20554;-70
2023/07/22 05:48:22;;;;;;;7.30;4.28;;;;;;;32.58;42.07;96419.91;5094045;28;20080;-67
2023/07/22 05:50:50;;;;;;;8.10;4.30;;;;;;;32.70;40.73;96425.59;5094290;28;20040;-67
2023/07/22 05:53:17;;;;;;;7.78;4.15;;;;;;;32.77;40.18;96414.78;5093841;28;20452;-68
2023/07/22 05:55:44;;;;;;;9.38;3.95;;;;;;;32.97;39.45;96422.97;5094065;28;20405;-64
2023/07/22 05:58:17;;;;;;;8.02;4.40;;;;;;;33.21;38.38;96418.03;5093916;28;20486;-66
2023/07/22 06:00:46;;;;;;;9.85;4.72;;;;;;;33.52;38.69;96422.03;5094114;28;20131;-68
2023/07/22 06:03:15;;;;;;;8.70;5.03;;;;;;;33.64;36.84;96421.41;5093677;28;20044;-65
2023/07/22 06:05:43;;;;;;;6.75;4.50;;;;;;;33.74;37.33;96424.53;5109269;28;20123;-69
2023/07/22 06:08:11;;;;;;;8.30;4.72;;;;;;;33.91;37.50;96414.09;5114069;28;20502;-66
2023/07/22 06:10:38;;;;;;;7.38;4.80;;;;;;;34.18;36.80;96404.25;5114250;28;20054;-66
2023/07/22 06:13:06;;;;;;;7.03;4.53;;;;;;;34.48;36.67;96412.75;5112524;28;20481;-69
2023/07/22 06:15:34;;;;;;;10.25;4.10;;;;;;;34.72;36.00;96420.38;5100509;28;20057;-69
2023/07/22 06:18:07;;;;;;;8.93;4.47;;;;;;;34.92;36.00;96417.59;5099318;28;20105;-69
2023/07/22 06:20:35;;;;;;;7.18;4.00;;;;;;;34.89;35.14;96421.59;5093502;28;20413;-66
2023/07/22 06:23:03;;;;;;;9.82;4.97;;;;;;;35.08;36.03;96424.38;5096633;28;20522;-65
2023/07/22 06:25:31;;;;;;;8.40;4.38;;;;;;;35.18;36.11;96417.69;5113910;28;20554;-64
2023/07/22 06:27:59;;;;;;;7.38;4.47;;;;;;;35.24;35.07;96419.53;5113995;28;20085;-68
2023/07/22 06:30:27;;;;;;;6.10;3.97;;;;;;;35.33;34.76;96420.09;5102184;28;20044;-68
2023/07/22 06:32:55;;;;;;;10.70;4.72;;;;;;;35.41;35.30;96420.66;5076677;28;20080;-65
2023/07/22 06:35:24;;;;;;;10.13;4.60;;;;;;;35.10;34.66;96425.00;5093174;28;20138;-66
2023/07/22 06:37:51;;;;;;;11.00;4.70;;;;;;;35.13;35.31;96431.88;5093348;28;20040;-66
2023/07/22 06:40:18;;;;;;;8.23;4.60;;;;;;;35.02;35.73;96439.69;5093298;28;20383;-67
2023/07/22 06:42:49;;;;;;;11.15;5.22;;;;;;;35.07;36.37;96432.75;5106663;28;20448;-64
2023/07/22 06:45:16;;;;;;;5.85;3.80;;;;;;;35.10;35.21;96430.44;5113538;28;20054;-66
2023/07/22 06:47:44;;;;;;;8.88;4.47;;;;;;;35.17;36.04;96427.66;5112805;28;20523;-66
2023/07/22 06:50:11;;;;;;;8.10;4.35;;;;;;;35.29;36.23;96425.97;5107857;28;20043;-64
2023/07/22 06:52:41;;;;;;;7.05;4.43;;;;;;;35.47;35.54;96431.66;5108962;28;20401;-66
2023/07/22 06:55:09;;;;;;;8.02;4.80;;;;;;;35.56;35.51;96429.50;5096127;28;20066;-64
2023/07/22 06:57:36;;;;;;;13.73;5.55;;;;;;;35.67;34.44;96434.25;5113387;28;20047;-65
2023/07/22 07:00:05;;;;;;;17.48;5.20;;;;;;;35.59;34.21;96439.94;5100989;28;20052;-67
2023/07/22 07:02:32;;;;;;;9.70;5.07;;;;;;;35.73;34.56;96446.16;5092738;28;20060;-65
2023/07/22 07:05:00;;;;;;;7.72;4.60;;;;;;;35.90;34.83;96436.38;5093151;28;20044;-65
2023/07/22 07:07:27;;;;;;;27.30;5.85;;;;;;;35.92;34.64;96436.16;5093007;28;20051;-67
2023/07/22 07:09:56;;;;;;;14.25;5.28;;;;;;;35.83;34.44;96438.31;5100071;28;20122;-66
2023/07/22 07:12:23;;;;;;;9.93;4.78;;;;;;;35.60;34.59;96441.63;5113286;28;20048;-65
2023/07/22 07:14:52;;;;;;;8.43;4.43;;;;;;;35.57;33.87;96426.56;5113438;28;20048;-66
2023/07/22 07:17:19;;;;;;;5.18;4.68;;;;;;;35.26;34.97;96431.81;5111452;28;20043;-66
2023/07/22 07:19:46;;;;;;;6.47;4.88;;;;;;;35.04;35.86;96429.41;5113044;28;20127;-67
2023/07/22 07:22:14;;;;;;;7.18;4.57;;;;;;;35.15;36.35;96433.31;5113354;28;20093;-67
2023/07/22 07:24:42;;;;;;;7.28;4.65;;;;;;;35.42;35.05;96433.16;5113243;28;20054;-64
2023/07/22 07:27:11;;;;;;;9.15;4.85;;;;;;;35.62;34.91;96440.34;5110820;28;20055;-66
2023/07/22 07:29:38;;;;;;;10.15;4.75;;;;;;;35.45;36.52;96453.63;5093347;28;20105;-66
2023/07/22 07:32:06;;;;;;;10.90;4.97;;;;;;;35.56;35.92;96451.25;5096903;28;20048;-67
2023/07/22 07:34:33;;;;;;;8.95;4.55;;;;;;;35.59;36.68;96467.13;5096779;28;20062;-65
2023/07/22 07:37:00;;;;;;;6.97;4.82;;;;;;;35.52;35.76;96464.47;5096837;28;20072;-65
2023/07/22 07:39:28;;;;;;;8.95;5.00;;;;;;;35.31;35.99;96458.34;5097513;28;20492;-67
2023/07/22 07:41:56;;;;;;;8.27;4.75;;;;;;;35.07;36.35;96454.47;5096548;28;20063;-66
2023/07/22 07:44:24;;;;;;;11.45;4.85;;;;;;;35.25;37.97;96453.78;5096598;28;20451;-65
2023/07/22 07:46:52;;;;;;;8.25;4.88;;;;;;;35.54;35.86;96449.59;5096494;28;20126;-66
2023/07/22 07:49:19;;;;;;;6.20;4.63;;;;;;;35.77;35.07;96448.22;5096628;28;20080;-67
2023/07/22 07:51:46;;;;;;;9.95;4.18;;;;;;;35.81;34.38;96445.84;5100411;28;20044;-66
2023/07/22 07:54:15;;;;;;;6.35;4.32;;;;;;;36.03;36.36;96440.84;5116934;28;20071;-66
2023/07/22 07:56:43;;;;;;;9.05;4.75;;;;;;;36.36;36.22;96435.31;5116871;28;20054;-66
2023/07/22 07:59:10;;;;;;;13.35;5.05;;;;;;;36.50;35.06;96435.97;5116583;28;20058;-64
2023/07/22 08:01:41;;;;;;;6.25;4.05;;;;;;;36.66;35.24;96445.44;5116584;28;20051;-63
2023/07/22 08:04:09;;;;;;;6.75;4.55;;;;;;;36.90;34.20;96451.03;5113519;28;20086;-65
2023/07/22 08:06:37;;;;;;;5.97;4.65;;;;;;;37.09;34.47;96449.09;5096298;28;20378;-66
2023/07/22 08:09:05;;;;;;;8.68;5.05;;;;;;;37.28;33.63;96444.47;5096242;28;20052;-64
2023/07/22 08:11:33;;;;;;;9.07;4.80;;;;;;;37.43;33.46;96443.19;5095486;28;20044;-64
2023/07/22 08:14:00;;;;;;;8.98;4.40;;;;;;;37.52;33.57;96443.66;5095703;28;20428;-67
2023/07/22 08:16:27;;;;;;;9.05;4.97;;;;;;;37.60;32.64;96437.91;5095749;28;20085;-68
2023/07/22 08:18:56;;;;;;;10.20;5.03;;;;;;;37.73;32.87;96436.84;5095027;28;20069;-66
2023/07/22 08:21:24;;;;;;;10.30;4.90;;;;;;;37.79;32.16;96435.94;5095838;28;20133;-64
2023/07/22 08:23:51;;;;;;;12.30;5.18;;;;;;;37.34;31.37;96431.78;5095764;28;20044;-66
2023/07/22 08:26:20;;;;;;;7.63;4.45;;;;;;;37.36;32.74;96434.28;5095747;28;20044;-66
2023/07/22 08:28:48;;;;;;;7.55;4.57;;;;;;;37.01;31.79;96420.28;5094534;28;20048;-65
2023/07/22 08:31:15;;;;;;;17.25;5.03;;;;;;;36.70;32.57;96419.44;5095600;28;20059;-68
2023/07/22 08:33:43;;;;;;;10.18;5.30;;;;;;;36.51;33.78;96430.31;5114466;28;20047;-65
2023/07/22 08:36:12;;;;;;;6.38;4.57;;;;;;;35.97;33.65;96432.75;5115747;28;20052;-63
2023/07/22 08:38:40;;;;;;;5.88;4.20;;;;;;;36.07;34.47;96427.63;5116128;28;20408;-67
2023/07/22 08:41:08;;;;;;;9.70;5.43;;;;;;;35.81;32.76;96418.66;5115608;28;20066;-65
2023/07/22 08:43:40;;;;;;;8.13;4.90;;;;;;;35.57;35.33;96412.16;5113830;28;20047;-68
2023/07/22 08:46:10;;;;;;;9.85;5.45;;;;;;;35.67;34.28;96407.06;5115749;28;20043;-66
2023/07/22 08:48:42;;;;;;;9.75;5.15;;;;;;;35.60;33.43;96404.38;5115857;28;20454;-67
2023/07/22 08:51:15;;;;;;;15.05;5.63;;;;;;;35.66;33.49;96408.09;5115324;28;20047;-66
2023/07/22 08:53:44;;;;;;;7.65;5.50;;;;;;;35.34;32.97;96405.44;5115743;28;20051;-68
2023/07/22 08:56:11;;;;;;;9.40;5.78;;;;;;;35.42;34.20;96402.44;5115727;28;20065;-68
2023/07/22 08:58:43;;;;;;;6.93;5.13;;;;;;;35.40;34.67;96404.56;5115594;28;20054;-67
2023/07/22 09:01:10;;;;;;;18.33;5.93;;;;;;;35.34;35.30;96403.56;5109406;28;20076;-67
2023/07/22 09:03:41;;;;;;;11.50;5.20;;;;;;;35.59;35.76;96397.28;5094808;28;20098;-66
2023/07/22 09:06:09;;;;;;;11.77;5.45;;;;;;;35.51;33.29;96403.00;5094883;28;20401;-66
2023/07/22 09:08:39;;;;;;;12.02;5.40;;;;;;;35.63;36.04;96389.50;5095204;28;20048;-66
2023/07/22 09:11:07;;;;;;;12.10;6.00;;;;;;;35.80;34.24;96395.25;5095011;28;20048;-66
2023/07/22 09:13:38;;;;;;;12.23;5.43;;;;;;;35.97;32.36;96395.50;5094897;28;20067;-67
2023/07/22 09:16:07;;;;;;;12.05;6.00;;;;;;;36.26;32.76;96395.84;5094705;28;20079;-67
2023/07/22 09:18:35;;;;;;;9.27;5.60;;;;;;;36.57;31.35;96385.03;5094777;28;20047;-67
2023/07/22 09:21:03;;;;;;;10.88;5.32;;;;;;;36.66;31.89;96385.53;5094810;28;20477;-67
2023/07/22 09:23:35;;;;;;;10.48;5.28;;;;;;;36.74;32.11;96385.25;5094793;28;20044;-67
2023/07/22 09:26:15;;;;;;;17.67;5.93;;;;;;;36.63;32.67;96383.28;5094231;28;20048;-67
2023/07/22 09:28:54;;;;;;;10.75;5.63;;;;;;;36.66;32.80;96385.53;5094605;28;20044;-67
2023/07/22 09:31:23;;;;;;;15.90;5.88;;;;;;;36.59;32.50;96374.72;5094566;28;20052;-67
2023/07/22 09:33:53;;;;;;;10.18;5.43;;;;;;;36.50;32.09;96378.81;5094167;28;20101;-67
2023/07/22 09:36:22;;;;;;;9.10;5.63;;;;;;;36.54;32.14;96378.13;5092891;28;20048;-68
2023/07/22 09:39:02;;;;;;;11.68;5.30;;;;;;;36.72;32.75;96375.66;5092569;28;20040;-67
2023/07/22 09:41:31;;;;;;;9.60;5.75;;;;;;;36.41;31.39;96370.97;5094219;28;20124;-66
2023/07/22 09:44:02;;;;;;;12.27;5.33;;;;;;;36.35;31.88;96369.16;5094522;28;20052;-67
2023/07/22 09:46:34;;;;;;;9.35;6.43;;;;;;;36.43;32.90;96368.03;5094008;28;20048;-68
2023/07/22 09:49:05;;;;;;;9.20;5.03;;;;;;;36.47;32.18;96361.06;5094387;28;20512;-67
2023/07/22 09:51:35;;;;;;;13.48;6.70;;;;;;;36.59;31.59;96366.56;5094410;28;20131;-67
2023/07/22 09:54:04;;;;;;;11.50;5.88;;;;;;;36.48;32.90;96357.25;5090318;28;20052;-67
2023/07/22 09:56:43;;;;;;;11.00;5.85;;;;;;;36.14;34.13;96362.25;5093445;28;20044;-67
2023/07/22 09:59:12;;;;;;;9.18;5.72;;;;;;;36.36;34.94;96359.91;5093067;28;20044;-67
2023/07/22 10:01:40;;;;;;;11.55;5.60;;;;;;;36.58;33.19;96355.88;5093157;28;20093;-67
2023/07/22 10:04:08;;;;;;;19.50;6.10;;;;;;;36.83;33.19;96350.34;5093805;28;20133;-67
2023/07/22 10:06:35;;;;;;;12.77;5.85;;;;;;;37.04;33.31;96356.31;5093737;28;20055;-67
2023/07/22 10:09:06;;;;;;;10.43;5.57;;;;;;;37.24;31.72;96349.75;5093242;28;20486;-67
2023/07/22 10:11:36;;;;;;;9.40;6.03;;;;;;;37.10;32.34;96349.09;5093526;28;20048;-67
2023/07/22 10:14:03;;;;;;;;;;;;;;;37.10;33.52;96343.66;5093922;28;20050;-67
2023/07/22 10:16:31;;;;;;;12.32;5.55;;;;;;;37.04;35.44;96348.97;5093152;28;20361;-67
2023/07/22 10:19:00;;;;;;;10.82;5.68;;;;;;;37.10;33.94;96347.22;5092172;28;20083;-67
2023/07/22 10:21:29;;;;;;;9.35;6.38;;;;;;;37.19;33.42;96347.72;5093326;28;20079;-67
2023/07/22 10:23:58;;;;;;;11.32;5.50;;;;;;;37.36;34.08;96333.41;5093187;28;20075;-67
2023/07/22 10:26:26;;;;;;;10.20;5.97;;;;;;;37.44;32.33;96329.53;5096116;28;20066;-67
2023/07/22 10:28:56;;;;;;;12.07;5.63;;;;;;;37.41;33.02;96334.38;5093188;28;20070;-67
2023/07/22 10:31:24;;;;;;;12.70;5.90;;;;;;;37.38;33.89;96326.66;5091841;28;20055;-67
2023/07/22 10:33:53;;;;;;;12.30;6.00;;;;;;;37.48;33.08;96320.63;5093253;28;20055;-67
2023/07/22 10:36:21;;;;;;;10.55;5.65;;;;;;;37.33;33.61;96329.28;5104947;28;20047;-67
2023/07/22 10:38:58;;;;;;;14.55;5.90;;;;;;;37.30;33.12;96321.56;5097223;28;20110;-67
2023/07/22 10:41:26;;;;;;;7.97;6.13;;;;;;;37.10;34.13;96330.88;5093239;28;20048;-67
2023/07/22 10:44:01;;;;;;;14.25;6.82;;;;;;;37.01;34.07;96335.81;5093313;28;20047;-67
2023/07/22 10:46:38;;;;;;;11.15;6.28;;;;;;;37.15;33.17;96331.00;5092970;28;20117;-67
2023/07/22 10:49:12;;;;;;;12.13;6.20;;;;;;;36.82;32.55;96326.06;5093132;28;20523;-67
2023/07/22 10:51:41;;;;;;;8.90;5.85;;;;;;;36.59;34.19;96325.72;5093348;28;20052;-67
2023/07/22 10:54:15;;;;;;;10.52;5.65;;;;;;;36.34;34.08;96318.50;5093038;28;20044;-67
2023/07/22 10:56:47;;;;;;;14.00;5.82;;;;;;;36.49;34.08;96312.66;5100341;28;20462;-67
2023/07/22 10:59:16;;;;;;;9.98;6.30;;;;;;;36.44;32.85;96317.94;5113521;28;20043;-67
2023/07/22 11:01:47;;;;;;;13.73;5.70;;;;;;;36.51;34.16;96309.72;5113283;28;20043;-67
2023/07/22 11:07:08;;;;;;;12.90;6.13;;;;;;;36.84;34.30;96315.78;5092827;28;20405;-67
2023/07/22 11:09:37;;;;;;;10.45;5.75;;;;;;;36.90;32.68;96314.84;5093125;28;20109;-67
2023/07/22 11:12:07;;;;;;;11.88;5.63;;;;;;;37.06;33.52;96307.88;5092767;28;20075;-67
2023/07/22 11:14:40;;;;;;;13.95;6.57;;;;;;;37.22;33.19;96302.81;5093139;28;20056;-67
2023/07/22 11:17:09;;;;;;;21.63;6.35;;;;;;;36.99;31.30;96298.97;5093000;28;20086;-67
2023/07/22 11:19:36;;;;;;;11.32;5.22;;;;;;;36.75;32.34;96291.56;5092832;28;20040;-67
2023/07/22 11:22:06;;;;;;;9.07;6.03;;;;;;;36.50;32.79;96292.53;5093876;28;20504;-67
2023/07/22 11:24:36;;;;;;;10.50;5.32;;;;;;;36.43;33.54;96294.53;5113176;28;20040;-67
2023/07/22 11:27:06;;;;;;;14.32;5.80;;;;;;;36.52;33.73;96290.44;5113142;28;20054;-67
2023/07/22 11:29:34;;;;;;;12.48;5.97;;;;;;;36.54;33.65;96284.75;5113127;28;20056;-67
2023/07/22 11:32:04;;;;;;;15.32;5.70;;;;;;;36.72;33.41;96285.78;5113050;28;20079;-67
2023/07/22 11:34:35;;;;;;;11.20;5.57;;;;;;;36.84;32.44;96289.34;5110901;28;20047;-67
2023/07/22 11:37:04;;;;;;;13.57;5.93;;;;;;;36.99;32.94;96278.00;5113149;28;20614;-67
2023/07/22 11:39:32;;;;;;;17.42;6.72;;;;;;;37.07;32.45;96278.75;5095040;28;20135;-67